createdAt,value
2023-04-20T00:02:08.201Z,19.10
2023-04-20T00:04:39.465Z,19.08
2023-04-20T00:07:07.934Z,19.10
2023-04-20T00:09:36.473Z,19.09
2023-04-20T00:12:04.852Z,19.09
2023-04-20T00:14:33.114Z,19.09
2023-04-20T00:17:01.815Z,19.08
2023-04-20T00:19:33.399Z,19.09
2023-04-20T00:22:03.943Z,19.08
2023-04-20T00:24:32.295Z,19.08
2023-04-20T00:27:00.871Z,19.09
2023-04-20T00:29:29.665Z,19.09
2023-04-20T00:31:58.064Z,19.08
2023-04-20T00:34:26.632Z,19.08
2023-04-20T00:36:55.316Z,19.08
2023-04-20T00:39:25.705Z,19.07
2023-04-20T00:41:54.173Z,19.07
2023-04-20T00:44:22.896Z,19.07
2023-04-20T00:46:54.229Z,18.99
2023-04-20T00:49:22.284Z,19.06
2023-04-20T00:51:51.249Z,19.07
2023-04-20T00:54:19.748Z,19.05
2023-04-20T00:56:50.944Z,19.04
2023-04-20T00:59:19.536Z,19.06
2023-04-20T01:01:48.354Z,19.07
2023-04-20T01:04:17.515Z,19.07
2023-04-20T01:06:46.212Z,19.07
2023-04-20T01:09:15.466Z,19.06
2023-04-20T01:11:44.153Z,19.08
2023-04-20T01:14:14.446Z,19.05
2023-04-20T01:16:42.956Z,19.06
2023-04-20T01:19:11.634Z,19.06
2023-04-20T01:21:40.365Z,19.06
2023-04-20T01:24:10.701Z,19.06
2023-04-20T01:26:39.239Z,19.05
2023-04-20T01:29:07.521Z,19.06
2023-04-20T01:31:35.796Z,19.06
2023-04-20T01:34:04.519Z,19.06
2023-04-20T01:36:34.032Z,19.06
2023-04-20T01:39:02.777Z,19.07
2023-04-20T01:41:33.184Z,19.06
2023-04-20T01:44:01.740Z,19.05
2023-04-20T01:46:30.584Z,19.05
2023-04-20T01:48:58.793Z,19.06
2023-04-20T01:51:28.360Z,19.06
2023-04-20T01:53:56.885Z,19.06
2023-04-20T01:56:25.193Z,19.05
2023-04-20T01:58:54.976Z,19.05
2023-04-20T02:01:23.572Z,19.06
2023-04-20T02:03:52.259Z,19.05
2023-04-20T02:06:21.223Z,19.04
2023-04-20T02:08:49.454Z,19.06
2023-04-20T02:11:17.922Z,19.06
2023-04-20T02:13:46.006Z,19.06
2023-04-20T02:16:15.950Z,19.06
2023-04-20T02:18:46.186Z,19.07
2023-04-20T02:21:14.821Z,19.07
2023-04-20T02:23:43.002Z,19.04
2023-04-20T02:26:11.096Z,18.98
2023-04-20T02:28:39.313Z,19.06
2023-04-20T02:31:07.731Z,19.06
2023-04-20T02:33:38.241Z,19.05
2023-04-20T02:36:07.479Z,19.05
2023-04-20T02:38:36.216Z,19.06
2023-04-20T02:41:04.811Z,19.01
2023-04-20T02:43:34.448Z,19.06
2023-04-20T02:46:02.948Z,19.06
2023-04-20T02:48:31.163Z,19.07
2023-04-20T02:51:01.325Z,19.06
2023-04-20T02:53:29.778Z,19.05
2023-04-20T02:55:58.221Z,19.05
2023-04-20T02:58:27.045Z,19.04
2023-04-20T03:01:01.072Z,19.05
2023-04-20T03:03:30.177Z,19.06
2023-04-20T03:05:58.630Z,19.02
2023-04-20T03:08:28.233Z,19.05
2023-04-20T03:10:56.482Z,19.05
2023-04-20T03:13:25.139Z,19.04
2023-04-20T03:15:53.650Z,19.06
2023-04-20T03:18:21.978Z,19.05
2023-04-20T03:20:50.127Z,19.06
2023-04-20T03:23:18.302Z,19.06
2023-04-20T03:25:48.095Z,19.06
2023-04-20T03:28:16.845Z,19.07
2023-04-20T03:30:45.185Z,19.06
2023-04-20T03:33:14.083Z,19.06
2023-04-20T03:35:43.282Z,19.06
2023-04-20T03:38:12.031Z,19.06
2023-04-20T03:40:40.708Z,19.05
2023-04-20T03:43:11.550Z,19.05
2023-04-20T03:45:40.525Z,19.06
2023-04-20T03:48:09.670Z,19.06
2023-04-20T03:50:37.911Z,19.06
2023-04-20T03:53:06.501Z,19.05
2023-04-20T03:55:34.814Z,19.04
2023-04-20T03:58:03.584Z,19.06
2023-04-20T04:00:33.842Z,19.04
2023-04-20T04:03:02.734Z,19.05
2023-04-20T04:05:31.550Z,19.06
2023-04-20T04:08:00.166Z,19.05
2023-04-20T04:10:29.198Z,19.05
2023-04-20T04:12:57.769Z,19.05
2023-04-20T04:15:26.166Z,19.05
2023-04-20T04:17:58.088Z,19.04
2023-04-20T04:20:26.747Z,19.05
2023-04-20T04:22:55.266Z,19.06
2023-04-20T04:25:24.214Z,19.05
2023-04-20T04:27:53.361Z,19.06
2023-04-20T04:30:22.127Z,19.06
2023-04-20T04:32:50.847Z,19.07
2023-04-20T04:35:21.022Z,19.11
2023-04-20T04:37:49.557Z,19.13
2023-04-20T04:40:18.473Z,19.12
2023-04-20T04:42:48.909Z,19.11
2023-04-20T04:45:18.588Z,19.11
2023-04-20T04:47:47.212Z,19.09
2023-04-20T04:50:15.899Z,19.08
2023-04-20T04:52:47.154Z,19.08
2023-04-20T04:55:16.559Z,19.06
2023-04-20T04:57:45.431Z,19.08
2023-04-20T05:00:16.486Z,19.07
2023-04-20T05:02:44.987Z,19.07
2023-04-20T05:05:13.263Z,19.09
2023-04-20T05:07:42.151Z,19.12
2023-04-20T05:10:14.043Z,19.16
2023-04-20T05:12:44.670Z,19.19
2023-04-20T05:15:13.390Z,19.20
2023-04-20T05:17:42.225Z,19.22
2023-04-20T05:20:12.456Z,19.23
2023-04-20T05:22:40.888Z,19.24
2023-04-20T05:25:11.587Z,19.25
2023-04-20T05:27:42.271Z,19.26
2023-04-20T05:30:21.275Z,19.28
2023-04-20T05:32:52.326Z,19.27
2023-04-20T05:35:21.853Z,19.28
2023-04-20T05:37:50.305Z,19.25
2023-04-20T05:40:18.372Z,19.31
2023-04-20T05:42:49.228Z,19.32
2023-04-20T05:45:17.612Z,19.31
2023-04-20T05:47:54.752Z,19.30
2023-04-20T05:50:23.554Z,19.33
2023-04-20T05:52:52.136Z,19.33
2023-04-20T05:55:22.580Z,19.33
2023-04-20T05:57:54.280Z,19.34
2023-04-20T06:00:25.946Z,19.35
2023-04-20T06:02:55.830Z,19.36
2023-04-20T06:05:24.417Z,19.36
2023-04-20T06:07:53.540Z,19.35
2023-04-20T06:10:22.566Z,19.28
2023-04-20T06:12:51.080Z,19.36
2023-04-20T06:15:21.653Z,19.36
2023-04-20T06:17:50.465Z,19.37
2023-04-20T06:20:19.841Z,19.37
2023-04-20T06:22:48.378Z,19.38
2023-04-20T06:25:17.035Z,19.39
2023-04-20T06:27:45.569Z,19.39
2023-04-20T06:30:15.366Z,19.39
2023-04-20T06:32:45.689Z,19.39
2023-04-20T06:35:14.224Z,19.38
2023-04-20T06:37:43.141Z,19.39
2023-04-20T06:40:13.185Z,19.38
2023-04-20T06:42:42.865Z,19.38
2023-04-20T06:45:11.975Z,19.36
2023-04-20T06:47:40.341Z,19.35
2023-04-20T06:50:11.602Z,19.32
2023-04-20T06:52:41.480Z,19.30
2023-04-20T06:55:11.011Z,19.23
2023-04-20T06:57:40.203Z,19.28
2023-04-20T07:00:10.382Z,19.26
2023-04-20T07:02:46.337Z,19.14
2023-04-20T07:05:16.624Z,19.24
2023-04-20T07:07:45.812Z,19.20
2023-04-20T07:10:15.801Z,19.21
2023-04-20T07:12:45.662Z,19.21
2023-04-20T07:15:14.875Z,19.23
2023-04-20T07:17:43.397Z,19.26
2023-04-20T07:20:12.504Z,19.26
2023-04-20T07:22:42.238Z,19.28
2023-04-20T07:25:11.632Z,19.30
2023-04-20T07:27:41.992Z,19.30
2023-04-20T07:30:12.253Z,19.32
2023-04-20T07:32:42.385Z,19.32
2023-04-20T07:35:12.106Z,19.32
2023-04-20T07:37:42.076Z,19.30
2023-04-20T07:40:11.421Z,19.25
2023-04-20T07:42:40.534Z,19.31
2023-04-20T07:45:09.920Z,19.32
2023-04-20T07:47:39.444Z,19.30
2023-04-20T07:50:08.833Z,19.21
2023-04-20T07:52:37.291Z,19.26
2023-04-20T07:55:08.475Z,19.26
2023-04-20T07:57:36.877Z,19.26
2023-04-20T08:00:07.145Z,19.25
2023-04-20T08:02:35.818Z,19.24
2023-04-20T08:05:04.665Z,19.23
2023-04-20T08:07:33.655Z,19.23
2023-04-20T08:10:03.109Z,19.22
2023-04-20T08:12:33.217Z,19.21
2023-04-20T08:15:04.398Z,19.21
2023-04-20T08:20:06.132Z,19.20
2023-04-20T08:22:34.533Z,19.15
2023-04-20T08:25:02.769Z,19.19
2023-04-20T08:27:33.097Z,19.19
2023-04-20T08:30:02.033Z,19.16
2023-04-20T08:32:30.682Z,19.18
2023-04-20T08:34:59.623Z,19.17
2023-04-20T08:37:29.560Z,19.17
2023-04-20T08:39:59.962Z,19.17
2023-04-20T08:42:28.568Z,19.17
2023-04-20T08:44:59.129Z,19.17
2023-04-20T08:47:29.955Z,19.17
2023-04-20T08:50:00.351Z,19.16
2023-04-20T08:52:28.663Z,19.17
2023-04-20T08:54:58.010Z,19.16
2023-04-20T08:57:27.030Z,19.16
2023-04-20T08:59:55.870Z,19.15
2023-04-20T09:02:25.566Z,19.15
2023-04-20T09:05:04.266Z,19.15
2023-04-20T09:07:33.066Z,19.14
2023-04-20T09:10:02.857Z,19.16
2023-04-20T09:12:42.846Z,19.15
2023-04-20T09:15:12.472Z,19.13
2023-04-20T09:17:42.621Z,19.19
2023-04-20T09:20:12.373Z,19.22
2023-04-20T09:22:40.960Z,19.15
2023-04-20T09:25:16.659Z,19.20
2023-04-20T09:27:45.410Z,19.18
2023-04-20T09:30:14.827Z,19.17
2023-04-20T09:32:45.599Z,19.17
2023-04-20T09:35:14.038Z,19.18
2023-04-20T09:37:49.941Z,19.17
2023-04-20T09:40:19.829Z,19.18
2023-04-20T09:42:51.766Z,19.14
2023-04-20T09:45:20.452Z,19.16
2023-04-20T09:47:51.234Z,19.14
2023-04-20T09:50:29.305Z,19.09
2023-04-20T09:53:02.506Z,19.15
2023-04-20T09:55:32.720Z,19.15
2023-04-20T09:58:03.833Z,19.11
2023-04-20T10:00:32.476Z,19.14
2023-04-20T10:03:02.866Z,19.09
2023-04-20T10:05:36.836Z,19.15
2023-04-20T10:08:05.703Z,19.15
2023-04-20T10:10:45.579Z,19.14
2023-04-20T10:13:14.453Z,19.09
2023-04-20T10:15:44.256Z,19.16
2023-04-20T10:18:33.661Z,19.15
2023-04-20T10:21:10.930Z,19.16
2023-04-20T10:23:50.062Z,19.15
2023-04-20T10:26:19.049Z,19.15
2023-04-20T10:28:48.234Z,19.18
2023-04-20T10:31:17.245Z,19.17
2023-04-20T10:33:57.407Z,19.14
2023-04-20T10:36:28.514Z,19.12
2023-04-20T10:38:56.758Z,19.11
2023-04-20T10:41:25.278Z,19.09
2023-04-20T10:43:53.433Z,19.08
2023-04-20T10:46:22.946Z,19.08
2023-04-20T10:48:56.823Z,19.08
2023-04-20T10:51:26.209Z,19.07
2023-04-20T10:54:01.941Z,19.07
2023-04-20T10:56:38.264Z,19.07
2023-04-20T10:59:09.788Z,19.06
2023-04-20T11:01:38.135Z,19.07
2023-04-20T11:04:07.914Z,19.06
2023-04-20T11:06:36.438Z,19.06
2023-04-20T11:09:04.749Z,19.06
2023-04-20T11:11:32.820Z,19.06
2023-04-20T11:14:08.350Z,19.06
2023-04-20T11:16:49.539Z,19.05
2023-04-20T11:19:26.423Z,19.09
2023-04-20T11:21:55.000Z,19.08
2023-04-20T11:24:25.642Z,19.09
2023-04-20T11:26:56.251Z,19.09
2023-04-20T11:29:33.320Z,19.10
2023-04-20T11:32:04.073Z,19.11
2023-04-20T11:34:35.319Z,19.10
2023-04-20T11:37:05.863Z,19.10
2023-04-20T11:39:34.087Z,19.08
2023-04-20T11:42:02.188Z,19.11
2023-04-20T11:44:30.811Z,19.11
2023-04-20T11:46:59.021Z,19.10
2023-04-20T11:49:28.350Z,19.05
2023-04-20T11:51:57.835Z,19.11
2023-04-20T11:54:27.428Z,19.12
2023-04-20T11:56:55.483Z,19.12
2023-04-20T11:59:23.567Z,19.12
2023-04-20T12:01:52.335Z,19.13
2023-04-20T12:04:20.748Z,19.14
2023-04-20T12:06:49.226Z,19.14
2023-04-20T12:09:18.831Z,19.14
2023-04-20T12:11:47.087Z,19.11
2023-04-20T12:14:15.209Z,19.13
2023-04-20T12:16:43.264Z,19.14
2023-04-20T12:19:11.464Z,19.14
2023-04-20T12:21:39.521Z,19.11
2023-04-20T12:24:07.964Z,19.16
2023-04-20T12:26:38.623Z,19.17
2023-04-20T12:29:07.764Z,19.15
2023-04-20T12:31:36.626Z,19.16
2023-04-20T12:34:04.851Z,19.01
2023-04-20T12:36:35.219Z,19.14
2023-04-20T12:39:04.255Z,19.11
2023-04-20T12:41:33.345Z,19.10
2023-04-20T12:44:15.816Z,19.11
2023-04-20T12:46:44.176Z,19.09
2023-04-20T12:49:12.270Z,19.12
2023-04-20T12:51:40.943Z,19.14
2023-04-20T12:54:09.411Z,19.13
2023-04-20T12:56:37.550Z,19.13
2023-04-20T12:59:07.222Z,19.15
2023-04-20T13:01:35.283Z,19.13
2023-04-20T13:04:03.522Z,19.14
2023-04-20T13:06:32.771Z,19.15
2023-04-20T13:09:01.773Z,19.14
2023-04-20T13:11:31.689Z,19.16
2023-04-20T13:14:00.858Z,19.13
2023-04-20T13:16:30.516Z,19.16
2023-04-20T13:18:58.644Z,19.17
2023-04-20T13:21:26.816Z,19.14
2023-04-20T13:23:56.812Z,19.16
2023-04-20T13:26:25.188Z,19.15
2023-04-20T13:28:54.254Z,19.15
2023-04-20T13:31:22.434Z,19.13
2023-04-20T13:33:54.692Z,19.10
2023-04-20T13:36:28.407Z,19.02
2023-04-20T13:38:57.720Z,19.16
2023-04-20T13:41:25.938Z,19.18
2023-04-20T13:43:54.131Z,19.19
2023-04-20T13:46:22.316Z,19.22
2023-04-20T13:48:51.849Z,19.21
2023-04-20T13:51:19.908Z,19.20
2023-04-20T13:53:49.230Z,19.20
2023-04-20T13:56:17.592Z,19.19
2023-04-20T13:58:45.778Z,19.19
2023-04-20T14:01:15.834Z,19.23
2023-04-20T14:03:44.790Z,19.22
2023-04-20T14:06:14.479Z,19.23
2023-04-20T14:08:42.545Z,19.23
2023-04-20T14:11:10.843Z,19.23
2023-04-20T14:13:39.157Z,19.17
2023-04-20T14:16:09.942Z,19.25
2023-04-20T14:18:38.057Z,19.26
2023-04-20T14:21:06.303Z,19.25
2023-04-20T14:23:35.790Z,19.26
2023-04-20T14:26:04.407Z,19.26
2023-04-20T14:28:33.516Z,19.25
2023-04-20T14:31:02.930Z,19.26
2023-04-20T14:33:31.096Z,19.25
2023-04-20T14:35:59.138Z,19.27
2023-04-20T14:38:27.230Z,19.24
2023-04-20T14:40:56.921Z,19.25
2023-04-20T14:43:25.014Z,19.25
2023-04-20T14:45:53.109Z,19.26
2023-04-20T14:48:21.200Z,19.25
2023-04-20T14:50:49.249Z,19.29
2023-04-20T14:53:17.345Z,19.29
2023-04-20T14:55:45.748Z,19.27
2023-04-20T14:58:18.689Z,19.23
2023-04-20T15:00:47.131Z,19.23
2023-04-20T15:03:17.843Z,19.20
2023-04-20T15:05:47.102Z,19.18
2023-04-20T15:08:15.491Z,19.17
2023-04-20T15:10:43.560Z,19.14
2023-04-20T15:13:12.158Z,19.11
2023-04-20T15:15:48.386Z,19.11
2023-04-20T15:18:17.829Z,19.09
2023-04-20T15:20:46.249Z,19.08
2023-04-20T15:23:14.345Z,19.07
2023-04-20T15:25:42.459Z,19.07
2023-04-20T15:28:11.292Z,19.06
2023-04-20T15:30:39.438Z,19.06
2023-04-20T15:33:09.042Z,19.04
2023-04-20T15:35:37.172Z,19.05
2023-04-20T15:38:05.671Z,19.03
2023-04-20T15:40:33.814Z,19.00
2023-04-20T15:43:02.904Z,19.02
2023-04-20T15:45:31.374Z,18.99
2023-04-20T15:48:01.055Z,18.99
2023-04-20T15:50:30.674Z,18.98
2023-04-20T15:52:58.727Z,18.96
2023-04-20T15:55:27.035Z,18.97
2023-04-20T15:57:58.193Z,18.95
2023-04-20T16:00:26.480Z,18.96
2023-04-20T16:02:54.895Z,18.95
2023-04-20T16:05:23.296Z,18.94
2023-04-20T16:07:53.675Z,18.93
2023-04-20T16:10:23.623Z,18.95
2023-04-20T16:12:52.316Z,18.93
2023-04-20T16:15:20.624Z,18.93
2023-04-20T16:17:48.947Z,18.95
2023-04-20T16:20:17.430Z,18.95
2023-04-20T16:22:45.539Z,18.92
2023-04-20T16:25:22.841Z,18.95
2023-04-20T16:27:51.763Z,18.95
2023-04-20T16:30:19.992Z,18.94
2023-04-20T16:32:48.178Z,18.95
2023-04-20T16:35:16.420Z,18.94
2023-04-20T16:37:44.557Z,18.95
2023-04-20T16:40:14.405Z,18.94
2023-04-20T16:42:42.556Z,18.95
2023-04-20T16:45:10.850Z,18.95
2023-04-20T16:47:39.046Z,18.93
2023-04-20T16:50:09.274Z,18.92
2023-04-20T16:52:37.757Z,18.93
2023-04-20T16:55:06.561Z,18.90
2023-04-20T16:57:36.242Z,18.92
2023-04-20T17:00:06.523Z,18.91
2023-04-20T17:02:36.190Z,18.92
2023-04-20T17:05:04.899Z,18.92
2023-04-20T17:07:33.031Z,18.91
2023-04-20T17:10:01.590Z,18.91
2023-04-20T17:12:30.428Z,18.90
2023-04-20T17:15:00.938Z,18.91
2023-04-20T17:17:29.349Z,18.90
2023-04-20T17:19:57.736Z,18.91
2023-04-20T17:22:26.137Z,18.92
2023-04-20T17:24:54.364Z,18.91
2023-04-20T17:27:23.159Z,18.93
2023-04-20T17:29:51.879Z,18.91
2023-04-20T17:32:21.495Z,18.91
2023-04-20T17:34:51.489Z,18.90
2023-04-20T17:37:19.725Z,18.90
2023-04-20T17:39:47.851Z,18.92
2023-04-20T17:42:16.052Z,18.91
2023-04-20T17:44:44.178Z,18.92
2023-04-20T17:47:15.021Z,18.92
2023-04-20T17:49:44.618Z,18.92
2023-04-20T17:52:15.340Z,18.91
2023-04-20T17:54:43.482Z,18.41
2023-04-20T17:57:11.608Z,18.91
2023-04-20T17:59:40.282Z,18.91
2023-04-20T18:02:09.303Z,18.90
2023-04-20T18:04:37.818Z,18.90
2023-04-20T18:07:07.379Z,18.88
2023-04-20T18:09:35.492Z,18.89
2023-04-20T18:12:03.862Z,18.89
2023-04-20T18:14:32.031Z,18.87
2023-04-20T18:17:00.168Z,18.88
2023-04-20T18:19:28.322Z,18.88
2023-04-20T18:21:56.961Z,18.84
2023-04-20T18:24:26.544Z,18.89
2023-04-20T18:26:54.762Z,18.81
2023-04-20T18:29:22.904Z,18.85
2023-04-20T18:31:53.540Z,18.88
2023-04-20T18:34:22.174Z,18.87
2023-04-20T18:36:50.242Z,18.87
2023-04-20T18:39:18.342Z,18.88
2023-04-20T18:41:47.822Z,18.88
2023-04-20T18:44:16.133Z,18.87
2023-04-20T18:46:44.366Z,18.87
2023-04-20T18:49:12.553Z,18.88
2023-04-20T18:51:40.761Z,18.88
2023-04-20T18:54:08.898Z,18.88
2023-04-20T18:56:38.790Z,18.87
2023-04-20T18:59:09.194Z,18.88
2023-04-20T19:01:40.661Z,18.87
2023-04-20T19:04:09.738Z,18.87
2023-04-20T19:06:37.966Z,18.86
2023-04-20T19:09:08.039Z,18.86
2023-04-20T19:11:36.525Z,18.86
2023-04-20T19:14:04.636Z,18.86
2023-04-20T19:16:35.401Z,18.86
2023-04-20T19:19:04.272Z,18.85
2023-04-20T19:21:33.289Z,18.84
2023-04-20T19:24:01.394Z,18.83
2023-04-20T19:26:29.506Z,18.85
2023-04-20T19:28:58.304Z,18.87
2023-04-20T19:31:26.592Z,18.86
2023-04-20T19:33:57.243Z,18.87
2023-04-20T19:36:25.474Z,18.86
2023-04-20T19:38:53.595Z,18.84
2023-04-20T19:41:22.291Z,18.86
2023-04-20T19:43:50.540Z,18.83
2023-04-20T19:46:18.725Z,18.85
2023-04-20T19:48:46.857Z,18.84
2023-04-20T19:51:16.379Z,18.85
2023-04-20T19:53:44.482Z,18.85
2023-04-20T19:56:12.771Z,18.85
2023-04-20T19:58:40.896Z,18.85
2023-04-20T20:01:09.010Z,18.86
2023-04-20T20:03:37.347Z,18.86
2023-04-20T20:06:05.752Z,18.84
2023-04-20T20:08:35.634Z,18.86
2023-04-20T20:11:04.105Z,18.85
2023-04-20T20:13:32.209Z,18.82
2023-04-20T20:16:00.547Z,18.86
2023-04-20T20:18:28.757Z,18.84
2023-04-20T20:20:56.868Z,18.83
2023-04-20T20:23:24.914Z,18.84
2023-04-20T20:25:54.504Z,18.84
2023-04-20T20:28:22.636Z,18.84
2023-04-20T20:30:51.114Z,18.84
2023-04-20T20:33:19.318Z,18.84
2023-04-20T20:35:48.019Z,18.85
2023-04-20T20:38:16.357Z,18.84
2023-04-20T20:40:44.698Z,18.83
2023-04-20T20:43:14.152Z,18.84
2023-04-20T20:45:42.453Z,18.82
2023-04-20T20:48:10.553Z,18.83
2023-04-20T20:50:38.633Z,18.83
2023-04-20T20:53:07.441Z,18.84
2023-04-20T20:55:35.534Z,18.83
2023-04-20T20:58:03.639Z,18.81
2023-04-20T21:00:33.611Z,18.81
2023-04-20T21:03:02.317Z,18.83
2023-04-20T21:05:30.590Z,18.83
2023-04-20T21:07:58.712Z,18.83
2023-04-20T21:10:26.920Z,18.84
2023-04-20T21:12:55.087Z,18.83
2023-04-20T21:15:23.158Z,18.84
2023-04-20T21:17:52.617Z,18.83
2023-04-20T21:20:20.864Z,18.83
2023-04-20T21:22:49.005Z,18.83
2023-04-20T21:25:17.177Z,18.83
2023-04-20T21:27:45.269Z,18.82
2023-04-20T21:30:14.400Z,18.82
2023-04-20T21:32:42.521Z,18.81
2023-04-20T21:35:12.221Z,18.83
2023-04-20T21:37:40.836Z,18.83
2023-04-20T21:40:10.418Z,18.82
2023-04-20T21:42:38.582Z,18.79
2023-04-20T21:45:07.415Z,18.82
2023-04-20T21:47:35.611Z,18.83
2023-04-20T21:50:03.757Z,18.81
2023-04-20T21:52:33.296Z,18.83
2023-04-20T21:55:01.399Z,18.83
2023-04-20T21:57:29.559Z,18.83
2023-04-20T21:59:57.692Z,18.82
2023-04-20T22:02:25.976Z,18.79
2023-04-20T22:04:56.132Z,18.81
2023-04-20T22:07:24.329Z,18.82
2023-04-20T22:09:53.857Z,18.81
2023-04-20T22:12:32.340Z,18.81
2023-04-20T22:15:09.331Z,18.80
2023-04-20T22:17:37.921Z,18.81
2023-04-20T22:20:08.487Z,18.81
2023-04-20T22:22:37.355Z,18.81
2023-04-20T22:25:08.690Z,18.77
2023-04-20T22:27:37.812Z,18.82
2023-04-20T22:30:09.521Z,18.81
2023-04-20T22:32:37.995Z,18.80
2023-04-20T22:35:07.296Z,18.81
2023-04-20T22:37:35.855Z,18.81
2023-04-20T22:40:05.949Z,18.81
2023-04-20T22:42:36.142Z,18.81
2023-04-20T22:45:04.975Z,18.80
2023-04-20T22:47:33.223Z,18.81
2023-04-20T22:50:01.890Z,18.81
2023-04-20T22:52:30.125Z,18.81
2023-04-20T22:54:58.249Z,18.82
2023-04-20T22:57:26.386Z,18.79
2023-04-20T22:59:55.886Z,18.81
2023-04-20T23:02:24.270Z,18.81
2023-04-20T23:04:52.699Z,18.81
2023-04-20T23:07:21.355Z,18.80
2023-04-20T23:09:49.519Z,18.80
2023-04-20T23:12:17.654Z,18.81
2023-04-20T23:14:45.790Z,18.80
2023-04-20T23:17:15.275Z,18.80
2023-04-20T23:19:43.411Z,18.79
2023-04-20T23:22:11.514Z,18.79
2023-04-20T23:24:39.661Z,18.80
2023-04-20T23:27:07.785Z,18.78
2023-04-20T23:29:36.046Z,18.81
2023-04-20T23:32:04.223Z,18.80
2023-04-20T23:34:33.806Z,18.82
2023-04-20T23:37:01.939Z,18.78
2023-04-20T23:39:30.023Z,18.80
2023-04-20T23:41:58.168Z,18.80
2023-04-20T23:44:26.347Z,18.80
2023-04-20T23:46:54.418Z,18.80
2023-04-20T23:49:22.496Z,18.80
2023-04-20T23:51:51.956Z,18.80
2023-04-20T23:54:20.045Z,18.80
2023-04-20T23:56:48.132Z,18.79
2023-04-20T23:59:16.358Z,18.80
